createdAt,value
2023-05-02T00:00:22.054Z,4.50
2023-05-02T00:05:45.190Z,5.40
2023-05-02T00:10:48.105Z,4.80
2023-05-02T00:15:50.910Z,4.50
2023-05-02T00:20:53.704Z,4.50
2023-05-02T00:25:56.426Z,5.10
2023-05-02T00:30:59.488Z,4.10
2023-05-02T00:36:02.380Z,4.30
2023-05-02T00:41:06.330Z,4.40
2023-05-02T00:46:13.188Z,3.90
2023-05-02T00:51:16.622Z,3.60
2023-05-02T00:56:19.642Z,5.30
2023-05-02T01:02:14.074Z,4.70
2023-05-02T01:07:41.829Z,4.70
2023-05-02T01:12:57.124Z,4.70
2023-05-02T01:18:02.458Z,3.70
2023-05-02T01:23:14.102Z,4.20
2023-05-02T01:28:28.694Z,4.60
2023-05-02T01:33:32.740Z,4.20
2023-05-02T01:38:37.689Z,5.20
2023-05-02T01:43:42.292Z,3.90
2023-05-02T01:48:49.461Z,5.10
2023-05-02T01:53:53.338Z,4.70
2023-05-02T01:58:56.992Z,3.40
2023-05-02T02:04:01.683Z,5.20
2023-05-02T02:09:04.707Z,4.90
2023-05-02T02:14:11.213Z,5.00
2023-05-02T02:19:15.682Z,5.00
2023-05-02T02:24:23.243Z,3.70
2023-05-02T02:29:26.069Z,4.70
2023-05-02T02:34:29.078Z,4.00
2023-05-02T02:39:49.039Z,4.30
2023-05-02T02:45:07.220Z,5.00
2023-05-02T02:50:25.401Z,5.20
2023-05-02T02:55:55.998Z,5.00
2023-05-02T03:01:04.169Z,4.70
2023-05-02T03:06:07.157Z,4.50
2023-05-02T03:11:10.609Z,4.00
2023-05-02T03:16:28.980Z,4.90
2023-05-02T03:21:33.445Z,5.10
2023-05-02T03:26:36.491Z,5.00
2023-05-02T03:31:39.244Z,5.60
2023-05-02T03:36:42.259Z,4.50
2023-05-02T03:41:45.012Z,5.40
2023-05-02T03:46:48.536Z,5.20
2023-05-02T03:51:51.742Z,4.70
2023-05-02T03:56:55.172Z,4.60
2023-05-02T04:01:58.521Z,5.30
2023-05-02T04:07:01.782Z,4.30
2023-05-02T04:12:04.902Z,6.10
2023-05-02T04:17:08.407Z,5.20
2023-05-02T04:22:11.314Z,5.50
2023-05-02T04:27:15.278Z,5.30
2023-05-02T04:32:18.451Z,4.50
2023-05-02T04:37:21.320Z,4.40
2023-05-02T04:42:25.160Z,5.30
2023-05-02T04:47:27.964Z,5.00
2023-05-02T04:52:31.217Z,5.20
2023-05-02T04:57:34.051Z,5.70
2023-05-02T05:02:37.128Z,5.70
2023-05-02T05:07:40.102Z,5.60
2023-05-02T05:12:42.852Z,5.50
2023-05-02T05:17:45.737Z,6.00
2023-05-02T05:22:48.914Z,5.70
2023-05-02T05:27:52.721Z,5.20
2023-05-02T05:32:55.429Z,5.30
2023-05-02T05:37:58.600Z,5.00
2023-05-02T05:43:01.414Z,6.00
2023-05-02T05:48:04.417Z,4.80
2023-05-02T05:53:07.274Z,5.60
2023-05-02T05:58:10.523Z,5.60
2023-05-02T06:03:13.440Z,5.90
2023-05-02T06:08:16.712Z,4.60
2023-05-02T06:13:19.417Z,5.00
2023-05-02T06:18:22.309Z,5.40
2023-05-02T06:23:25.118Z,5.60
2023-05-02T06:28:28.489Z,5.40
2023-05-02T06:33:32.913Z,5.20
2023-05-02T06:38:35.769Z,6.30
2023-05-02T06:43:38.578Z,5.30
2023-05-02T06:48:41.367Z,5.70
2023-05-02T06:53:44.191Z,4.80
2023-05-02T06:58:46.948Z,5.90
2023-05-02T07:03:49.771Z,6.80
2023-05-02T07:08:52.572Z,8.00
2023-05-02T07:13:55.372Z,7.70
2023-05-02T07:18:58.122Z,7.10
2023-05-02T07:24:01.498Z,7.50
2023-05-02T07:29:06.908Z,8.00
2023-05-02T07:34:09.746Z,5.40
2023-05-02T07:39:12.437Z,6.50
2023-05-02T07:44:15.466Z,6.50
2023-05-02T07:49:18.893Z,7.00
2023-05-02T07:54:22.523Z,6.90
2023-05-02T07:59:25.491Z,6.80
2023-05-02T08:04:28.802Z,7.90
2023-05-02T08:09:31.732Z,6.80
2023-05-02T08:14:34.847Z,5.30
2023-05-02T08:19:37.658Z,6.20
2023-05-02T08:24:40.412Z,6.70
2023-05-02T08:29:43.162Z,7.20
2023-05-02T08:34:45.942Z,7.50
2023-05-02T08:39:48.747Z,8.10
2023-05-02T08:44:52.592Z,7.70
2023-05-02T08:49:56.881Z,7.50
2023-05-02T08:55:02.312Z,5.70
2023-05-02T09:00:06.846Z,5.80
2023-05-02T09:05:13.026Z,5.50
2023-05-02T09:10:16.093Z,6.00
2023-05-02T09:15:21.028Z,6.40
2023-05-02T09:20:24.096Z,6.60
2023-05-02T09:25:37.840Z,6.70
2023-05-02T09:30:40.864Z,6.40
2023-05-02T09:35:55.015Z,6.60
2023-05-02T09:40:57.816Z,6.60
2023-05-02T09:46:06.908Z,7.40
2023-05-02T09:51:17.956Z,8.00
2023-05-02T09:56:22.556Z,7.30
2023-05-02T10:01:26.876Z,7.40
2023-05-02T10:06:31.056Z,8.10
2023-05-02T10:11:34.677Z,7.90
2023-05-02T10:16:56.317Z,6.50
2023-05-02T10:22:00.166Z,6.60
2023-05-02T10:27:05.690Z,7.10
2023-05-02T10:32:09.605Z,7.10
2023-05-02T10:37:12.656Z,6.70
2023-05-02T10:42:15.787Z,6.60
2023-05-02T10:47:22.692Z,6.50
2023-05-02T10:52:34.488Z,6.00
2023-05-02T10:57:57.579Z,5.50
2023-05-02T11:03:01.333Z,4.70
2023-05-02T11:08:30.461Z,4.60
2023-05-02T11:13:53.537Z,3.80
2023-05-02T11:19:00.944Z,4.10
2023-05-02T11:24:40.431Z,4.40
2023-05-02T11:29:56.911Z,3.10
2023-05-02T11:35:00.396Z,3.60
2023-05-02T11:40:13.870Z,3.60
2023-05-02T11:45:17.250Z,3.60
2023-05-02T11:50:20.143Z,3.50
2023-05-02T11:55:23.645Z,3.80
2023-05-02T12:00:29.536Z,3.80
2023-05-02T12:05:33.038Z,3.90
2023-05-02T12:10:37.763Z,3.50
2023-05-02T12:15:41.049Z,3.00
2023-05-02T12:20:45.109Z,3.80
2023-05-02T12:25:49.391Z,4.10
2023-05-02T12:30:52.344Z,4.10
2023-05-02T12:36:07.111Z,3.50
2023-05-02T12:41:09.873Z,3.80
2023-05-02T12:46:12.880Z,3.70
2023-05-02T12:51:23.741Z,3.80
2023-05-02T12:56:32.919Z,3.70
2023-05-02T13:01:36.392Z,5.20
2023-05-02T13:06:40.795Z,5.20
2023-05-02T13:11:44.086Z,4.80
2023-05-02T13:16:46.858Z,4.40
2023-05-02T13:21:49.701Z,4.90
2023-05-02T13:26:52.425Z,4.50
2023-05-02T13:31:55.153Z,5.00
2023-05-02T13:36:57.994Z,5.80
2023-05-02T13:42:04.485Z,4.70
2023-05-02T13:47:08.717Z,5.20
2023-05-02T13:52:11.741Z,6.10
2023-05-02T13:57:14.630Z,4.70
2023-05-02T14:02:17.686Z,5.60
2023-05-02T14:07:20.646Z,5.40
2023-05-02T14:12:23.557Z,5.40
2023-05-02T14:17:27.077Z,5.80
2023-05-02T14:22:29.984Z,5.40
2023-05-02T14:27:32.767Z,4.80
2023-05-02T14:32:35.997Z,5.40
2023-05-02T14:37:39.512Z,4.50
2023-05-02T14:42:42.795Z,4.80
2023-05-02T14:47:45.563Z,4.80
2023-05-02T14:52:48.642Z,4.70
2023-05-02T14:57:51.417Z,4.60
2023-05-02T15:02:54.407Z,4.80
2023-05-02T15:07:57.395Z,4.20
2023-05-02T15:13:00.801Z,3.90
2023-05-02T15:18:04.069Z,3.30
2023-05-02T15:23:06.915Z,3.40
2023-05-02T15:28:09.659Z,3.40
2023-05-02T15:33:12.467Z,3.50
2023-05-02T15:38:16.622Z,4.00
2023-05-02T15:43:19.333Z,3.40
2023-05-02T15:48:23.537Z,3.60
2023-05-02T15:53:26.960Z,3.50
2023-05-02T15:58:29.784Z,4.80
2023-05-02T16:03:34.313Z,4.10
2023-05-02T16:08:37.305Z,3.70
2023-05-02T16:13:40.719Z,3.40
2023-05-02T16:18:43.546Z,3.80
2023-05-02T16:23:46.530Z,3.80
2023-05-02T16:28:49.433Z,3.80
2023-05-02T16:33:52.345Z,3.20
2023-05-02T16:38:55.151Z,3.20
2023-05-02T16:43:57.912Z,3.10
2023-05-02T16:49:00.682Z,3.50
2023-05-02T16:54:03.547Z,3.80
2023-05-02T16:59:06.314Z,3.20
2023-05-02T17:04:09.893Z,3.00
2023-05-02T17:09:12.639Z,3.30
2023-05-02T17:14:16.209Z,3.70
2023-05-02T17:19:18.949Z,2.90
2023-05-02T17:24:22.191Z,3.50
2023-05-02T17:29:25.773Z,3.40
2023-05-02T17:34:30.431Z,2.70
2023-05-02T17:39:34.104Z,2.70
2023-05-02T17:44:37.085Z,3.30
2023-05-02T17:49:40.193Z,2.80
2023-05-02T17:54:43.103Z,2.90
2023-05-02T17:59:45.866Z,2.70
2023-05-02T18:04:49.953Z,2.60
2023-05-02T18:09:52.869Z,2.60
2023-05-02T18:14:56.157Z,2.30
2023-05-02T18:19:58.907Z,2.70
2023-05-02T18:25:01.938Z,3.10
2023-05-02T18:30:06.212Z,2.80
2023-05-02T18:35:11.263Z,3.20
2023-05-02T18:40:15.286Z,3.20
2023-05-02T18:45:18.188Z,3.90
2023-05-02T18:50:21.603Z,4.20
2023-05-02T18:55:25.448Z,2.60
2023-05-02T19:00:31.565Z,2.10
2023-05-02T19:05:35.062Z,2.00
2023-05-02T19:10:37.981Z,2.20
2023-05-02T19:15:40.757Z,2.90
2023-05-02T19:20:43.621Z,2.30
2023-05-02T19:25:47.210Z,2.40
2023-05-02T19:30:50.077Z,2.10
2023-05-02T19:35:54.326Z,2.10
2023-05-02T19:40:57.165Z,2.50
2023-05-02T19:46:00.004Z,2.20
2023-05-02T19:51:04.439Z,2.20
2023-05-02T19:56:07.503Z,2.70
2023-05-02T20:01:11.173Z,2.40
2023-05-02T20:06:14.817Z,2.00
2023-05-02T20:11:17.606Z,2.50
2023-05-02T20:16:20.506Z,2.00
2023-05-02T20:21:23.866Z,1.80
2023-05-02T20:26:27.000Z,1.80
2023-05-02T20:31:29.743Z,1.80
2023-05-02T20:36:33.574Z,2.10
2023-05-02T20:41:36.665Z,2.30
2023-05-02T20:46:39.564Z,2.20
2023-05-02T20:51:42.518Z,2.30
2023-05-02T20:56:45.668Z,2.10
2023-05-02T21:01:48.419Z,2.10
2023-05-02T21:06:53.221Z,2.20
2023-05-02T21:11:56.142Z,2.40
2023-05-02T21:16:58.832Z,2.40
2023-05-02T21:22:01.592Z,2.50
2023-05-02T21:27:04.597Z,2.50
2023-05-02T21:32:07.689Z,2.90
2023-05-02T21:37:10.652Z,2.70
2023-05-02T21:42:13.550Z,3.00
2023-05-02T21:47:17.537Z,2.90
2023-05-02T21:52:20.380Z,3.20
2023-05-02T21:57:23.250Z,2.90
2023-05-02T22:02:26.190Z,3.00
2023-05-02T22:07:29.068Z,2.30
2023-05-02T22:12:31.821Z,2.70
2023-05-02T22:17:34.593Z,2.50
2023-05-02T22:22:37.359Z,2.50
2023-05-02T22:27:40.398Z,2.70
2023-05-02T22:32:43.245Z,2.70
2023-05-02T22:37:46.152Z,3.00
2023-05-02T22:42:48.908Z,3.10
2023-05-02T22:47:52.767Z,2.80
2023-05-02T22:52:59.856Z,3.60
2023-05-02T22:58:02.743Z,3.40
2023-05-02T23:03:05.637Z,3.40
2023-05-02T23:08:08.418Z,3.50
2023-05-02T23:13:11.351Z,3.80
2023-05-02T23:18:14.521Z,4.00
2023-05-02T23:23:17.362Z,4.20
2023-05-02T23:28:20.221Z,3.80
2023-05-02T23:33:23.025Z,3.90
2023-05-02T23:38:26.491Z,4.40
2023-05-02T23:43:29.611Z,4.00
2023-05-02T23:48:32.494Z,4.60
2023-05-02T23:53:35.409Z,4.00
2023-05-02T23:58:38.318Z,3.90
